KGXF Airport (Gila Bend Af Aux) Information

FAA: GXF - ICAO: KGXF

KGXF Airport Location

State Arizona
County Maricopa
City Gila Bend
KGXF Airport is 3 miles south of Gila Bend, AZ.
Latitude 32-53-16.2500N
Longitude 112-43-10.5950W
Elevation 883ft

KGXF Airport METARs

METAR KGXF 161758Z AUTO 31005KT 10SM CLR 36/08 A2977 RMK AO2 SLP067 T03640083 10364 20255 50001
Altimeter 29.77"
Temperature 36.4°C (97.5°F)
Wind 310° at 5KT
Clouds Skies are clear.
Visibility 10.0mi
Time observed: 2021-09-16T17:58:00Z

KGXF Airport Details

Status Operational
Activation July 1942
Ownership Military - Air Force
Usage Private
Chart PHOENIX
ATC on-site Yes
Beacon schedule sunset-sunrise
Beacon color clear green

KGXF Airport Contacts

Owner USAF
Owner address LUKE AFB, GLENDALE, AZ 85301
Owner phone N/A
Manager DIRECTOR, 56 RMO
Manager address 7101 JERSTAD, LUKE AFB, AZ 85309-1647
Manager phone 623-856-5855

KGXF Airport (Gila Bend Af Aux) Radio Frequencies

KGXF (Airport) Radio Frequencies

UNICOM N/A
Common traffic advisory frequency (CTAF) N/A